Time;durP1;ratioP1;P1;durP2;ratioP2;P2;SDS_P1;SDS_P2;PMS_P1;PMS_P2;Temp;Humidity;BMP_temperature;BMP_pressure;BME280_temperature;BME280_humidity;BME280_pressure;Samples;Min_cycle;Max_cycle;Signal;HPM_P1;HPM_P2
2022/10/21 00:02:07;;;;;;;6.60;3.60;;;;;;;;;;6317530;22;20501;-91
2022/10/21 00:04:34;;;;;;;7.07;3.63;;;;;;;;;;6293931;22;20011;-96
2022/10/21 00:07:02;;;;;;;8.75;3.55;;;;;;;;;;6349001;22;20003;-94
2022/10/21 00:09:37;;;;;;;9.38;3.80;;;;;;;;;;6319471;22;19999;-93
2022/10/21 00:12:03;;;;;;;12.80;4.85;;;;;;;;;;6318930;22;20056;-95
2022/10/21 00:14:30;;;;;;;10.93;3.72;;;;;;;;;;6339155;22;20003;-96
2022/10/21 00:17:02;;;;;;;10.35;3.60;;;;;;;;;;6295616;22;20078;-95
2022/10/21 00:19:28;;;;;;;7.88;3.38;;;;;;;;;;6321687;22;20015;-96
2022/10/21 00:21:55;;;;;;;9.07;3.53;;;;;;;;;;6319210;22;20010;-96
2022/10/21 00:24:23;;;;;;;8.18;3.63;;;;;;;;;;6298962;22;20007;-92
2022/10/21 00:26:50;;;;;;;7.65;3.58;;;;;;;;;;6338309;22;20038;-89
2022/10/21 00:29:16;;;;;;;10.00;2.80;;;;;;;;;;6308563;22;20026;-92
2022/10/21 00:31:42;;;;;;;6.03;3.33;;;;;;;;;;6332914;22;20006;-95
2022/10/21 00:34:12;;;;;;;9.35;3.53;;;;;;;;;;6356573;22;20022;-95
2022/10/21 00:36:38;;;;;;;6.30;3.45;;;;;;;;;;6321502;22;20048;-96
2022/10/21 00:39:06;;;;;;;8.00;3.40;;;;;;;;;;6351368;22;20045;-96
2022/10/21 00:41:41;;;;;;;7.57;3.70;;;;;;;;;;6321873;22;20005;-95
2022/10/21 00:44:11;;;;;;;6.15;2.97;;;;;;;;;;6323695;22;20021;-96
2022/10/21 00:46:57;;;;;;;8.95;3.80;;;;;;;;;;6348718;22;20033;-96
2022/10/21 00:49:45;;;;;;;8.35;3.13;;;;;;;;;;6323802;22;20076;-95
2022/10/21 00:52:20;;;;;;;7.20;3.13;;;;;;;;;;6333948;22;20008;-96
2022/10/21 00:54:48;;;;;;;10.52;4.18;;;;;;;;;;6325434;22;19987;-88
2022/10/21 00:57:35;;;;;;;8.18;3.78;;;;;;;;;;6324933;22;20019;-96
2022/10/21 01:00:04;;;;;;;8.55;3.83;;;;;;;;;;6352575;22;20025;-96
2022/10/21 01:02:38;;;;;;;11.80;4.80;;;;;;;;;;6329249;22;20048;-96
2022/10/21 01:05:06;;;;;;;6.90;3.55;;;;;;;;;;6327856;22;20003;-95
2022/10/21 01:07:41;;;;;;;8.93;3.38;;;;;;;;;;6323372;22;20078;-96
2022/10/21 01:10:15;;;;;;;10.07;3.92;;;;;;;;;;6304060;22;20007;-95
2022/10/21 01:13:00;;;;;;;9.02;4.13;;;;;;;;;;6325214;22;20003;-96
2022/10/21 01:15:48;;;;;;;12.00;3.17;;;;;;;;;;6324622;22;20030;-95
2022/10/21 01:18:25;;;;;;;7.25;3.45;;;;;;;;;;6325230;22;20011;-94
2022/10/21 01:21:09;;;;;;;6.65;3.28;;;;;;;;;;6299176;22;20007;-96
2022/10/21 01:24:02;;;;;;;7.90;4.10;;;;;;;;;;6324498;22;20051;-90
2022/10/21 01:27:01;;;;;;;7.20;3.88;;;;;;;;;;6325722;22;20003;-96
2022/10/21 01:29:46;;;;;;;6.43;3.00;;;;;;;;;;6303632;22;20005;-94
2022/10/21 01:32:48;;;;;;;7.65;3.22;;;;;;;;;;6333377;22;20018;-88
2022/10/21 01:35:35;;;;;;;7.53;3.78;;;;;;;;;;6314850;22;20002;-96
2022/10/21 01:38:11;;;;;;;9.32;3.00;;;;;;;;;;6346933;22;20011;-96
2022/10/21 01:40:45;;;;;;;7.07;3.08;;;;;;;;;;6323418;22;20103;-95
2022/10/21 01:43:35;;;;;;;6.78;3.10;;;;;;;;;;6352613;22;20003;-89
2022/10/21 01:46:23;;;;;;;7.32;3.20;;;;;;;;;;6305241;22;20025;-96
2022/10/21 01:49:06;;;;;;;9.25;3.78;;;;;;;;;;6348811;22;20085;-96
2022/10/21 01:54:38;;;;;;;6.68;3.28;;;;;;;;;;6341651;22;20082;-92
2022/10/21 01:57:13;;;;;;;6.88;3.17;;;;;;;;;;6324826;22;20023;-96
2022/10/21 01:59:56;;;;;;;11.27;3.70;;;;;;;;;;6347575;22;20010;-96
2022/10/21 02:02:39;;;;;;;7.47;3.60;;;;;;;;;;6352540;22;20006;-96
2022/10/21 02:05:09;;;;;;;5.97;3.05;;;;;;;;;;6334446;22;20041;-95
2022/10/21 02:07:39;;;;;;;7.32;3.65;;;;;;;;;;6307386;22;20018;-96
2022/10/21 02:10:14;;;;;;;8.27;3.80;;;;;;;;;;6312903;22;20032;-95
2022/10/21 02:15:44;;;;;;;7.80;3.67;;;;;;;;;;6319736;22;20023;-96
2022/10/21 02:18:31;;;;;;;5.53;3.05;;;;;;;;;;6324632;22;20019;-95
2022/10/21 02:21:04;;;;;;;6.95;3.60;;;;;;;;;;6320871;22;20006;-96
2022/10/21 02:26:30;;;;;;;8.32;3.90;;;;;;;;;;6312345;22;20063;-96
2022/10/21 02:29:07;;;;;;;10.52;4.18;;;;;;;;;;6321131;22;20042;-95
2022/10/21 02:31:56;;;;;;;10.15;3.85;;;;;;;;;;6324830;22;20003;-96
2022/10/21 02:34:29;;;;;;;6.43;3.42;;;;;;;;;;6146164;23;20006;-87
2022/10/21 02:37:18;;;;;;;5.13;2.97;;;;;;;;;;6166749;23;20009;-94
2022/10/21 02:39:55;;;;;;;9.90;3.58;;;;;;;;;;6145109;23;20084;-95
2022/10/21 02:42:50;;;;;;;10.25;3.42;;;;;;;;;;6178775;23;20068;-96
2022/10/21 02:45:43;;;;;;;;;;;;;;;;;;;;;
2022/10/21 02:48:19;;;;;;;6.93;3.60;;;;;;;;;;6114323;23;20061;-95
2022/10/21 02:50:53;;;;;;;9.48;3.33;;;;;;;;;;6082346;23;20026;-93
2022/10/21 02:53:22;;;;;;;7.80;3.45;;;;;;;;;;6087082;23;19994;-93
2022/10/21 02:56:06;;;;;;;14.95;3.80;;;;;;;;;;6108109;23;20019;-92
2022/10/21 02:58:34;;;;;;;6.53;3.22;;;;;;;;;;6190196;23;20007;-95
2022/10/21 03:01:19;;;;;;;10.52;3.47;;;;;;;;;;6235604;23;20008;-96
2022/10/21 03:03:56;;;;;;;5.97;2.90;;;;;;;;;;6256720;23;20023;-87
2022/10/21 03:06:22;;;;;;;7.47;3.75;;;;;;;;;;6232659;23;20032;-95
2022/10/21 03:08:56;;;;;;;8.00;3.65;;;;;;;;;;6238305;23;20075;-95
2022/10/21 03:12:05;;;;;;;9.02;3.75;;;;;;;;;;6236972;23;20095;-95
2022/10/21 03:15:04;;;;;;;15.60;4.05;;;;;;;;;;6256785;23;20012;-96
2022/10/21 03:17:30;;;;;;;8.20;4.05;;;;;;;;;;6317503;22;20089;-91
2022/10/21 03:22:48;;;;;;;9.95;3.53;;;;;;;;;;6310633;22;20011;-95
2022/10/21 03:25:18;;;;;;;8.57;3.53;;;;;;;;;;6320046;22;20003;-95
2022/10/21 03:27:57;;;;;;;7.45;3.53;;;;;;;;;;6319628;22;20019;-96
2022/10/21 03:30:26;;;;;;;9.90;3.75;;;;;;;;;;6322735;22;20003;-95
2022/10/21 03:33:29;;;;;;;;;;;;;;;;;;;;;
2022/10/21 03:35:57;;;;;;;15.40;3.88;;;;;;;;;;6301419;22;20055;-95
2022/10/21 03:38:27;;;;;;;6.95;3.40;;;;;;;;;;6324000;22;20011;-94
2022/10/21 03:40:53;;;;;;;10.75;4.70;;;;;;;;;;6296414;22;20003;-88
2022/10/21 03:43:24;;;;;;;8.27;4.68;;;;;;;;;;6317383;22;20007;-87
2022/10/21 03:45:51;;;;;;;8.02;3.75;;;;;;;;;;6317529;22;20004;-88
2022/10/21 03:48:20;;;;;;;7.93;3.58;;;;;;;;;;6317500;22;20015;-93
2022/10/21 03:50:49;;;;;;;11.40;3.92;;;;;;;;;;6314148;22;20014;-93
2022/10/21 03:53:15;;;;;;;9.48;4.25;;;;;;;;;;6293739;22;20428;-93
2022/10/21 03:55:41;;;;;;;7.35;3.47;;;;;;;;;;6318061;22;20022;-87
2022/10/21 03:58:08;;;;;;;7.00;4.00;;;;;;;;;;6331624;22;20011;-87
2022/10/21 04:00:34;;;;;;;14.90;5.35;;;;;;;;;;6325119;22;19992;-96
2022/10/21 04:03:04;;;;;;;10.52;4.55;;;;;;;;;;6325540;22;20011;-88
2022/10/21 04:05:48;;;;;;;9.57;4.57;;;;;;;;;;6320741;22;20002;-96
2022/10/21 04:08:27;;;;;;;9.88;4.18;;;;;;;;;;6324510;22;20094;-96
2022/10/21 04:11:17;;;;;;;8.13;3.50;;;;;;;;;;6325936;22;19999;-95
2022/10/21 04:13:46;;;;;;;9.88;3.58;;;;;;;;;;6285926;22;20052;-88
2022/10/21 04:19:55;;;;;;;8.25;3.67;;;;;;;;;;6300584;22;20106;-96
2022/10/21 04:22:36;;;;;;;10.50;3.20;;;;;;;;;;6271385;22;20004;-96
2022/10/21 04:25:13;;;;;;;9.85;3.45;;;;;;;;;;6293880;22;20004;-96
2022/10/21 04:27:57;;;;;;;;;;;;;;;;;;;;;
2022/10/21 04:30:35;;;;;;;11.65;3.85;;;;;;;;;;6294788;22;20012;-96
2022/10/21 04:33:02;;;;;;;8.15;3.67;;;;;;;;;;6270633;22;20019;-87
2022/10/21 04:36:07;;;;;;;8.75;3.20;;;;;;;;;;6267219;22;20019;-88
2022/10/21 04:39:12;;;;;;;5.85;3.17;;;;;;;;;;6268233;22;19996;-96
2022/10/21 04:42:01;;;;;;;9.90;3.65;;;;;;;;;;6280930;22;20004;-94
2022/10/21 04:44:27;;;;;;;5.28;3.17;;;;;;;;;;6267796;22;20519;-93
2022/10/21 04:46:53;;;;;;;7.53;3.17;;;;;;;;;;6263079;22;19995;-88
2022/10/21 04:49:52;;;;;;;6.88;3.85;;;;;;;;;;6276829;22;20035;-96
2022/10/21 04:52:30;;;;;;;24.67;3.47;;;;;;;;;;6330592;22;20002;-89
2022/10/21 04:55:13;;;;;;;9.63;3.10;;;;;;;;;;6355653;22;20007;-96
2022/10/21 04:57:43;;;;;;;8.27;3.28;;;;;;;;;;6343784;22;20026;-94
2022/10/21 05:00:13;;;;;;;8.10;3.65;;;;;;;;;;6354181;22;20007;-96
2022/10/21 05:02:39;;;;;;;9.27;3.88;;;;;;;;;;6323304;22;20019;-96
2022/10/21 05:05:24;;;;;;;11.90;5.40;;;;;;;;;;6329360;22;20037;-94
2022/10/21 05:07:53;;;;;;;8.75;3.45;;;;;;;;;;6350501;22;20031;-95
2022/10/21 05:10:19;;;;;;;10.38;3.95;;;;;;;;;;6293371;22;20063;-86
2022/10/21 05:12:45;;;;;;;4.85;2.40;;;;;;;;;;6345013;22;19999;-96
2022/10/21 05:15:13;;;;;;;7.32;3.38;;;;;;;;;;6325425;22;20022;-85
2022/10/21 05:17:39;;;;;;;6.85;3.45;;;;;;;;;;6315903;22;20041;-96
2022/10/21 05:20:06;;;;;;;8.77;3.83;;;;;;;;;;6314910;22;20003;-94
2022/10/21 05:22:33;;;;;;;7.07;3.30;;;;;;;;;;6314464;22;20003;-96
2022/10/21 05:24:59;;;;;;;8.55;3.22;;;;;;;;;;6316474;22;20003;-95
2022/10/21 05:27:25;;;;;;;11.93;4.20;;;;;;;;;;6315815;22;19999;-95
2022/10/21 05:29:51;;;;;;;6.63;3.25;;;;;;;;;;6318034;22;20063;-96
2022/10/21 05:32:18;;;;;;;11.30;3.38;;;;;;;;;;6316065;22;20028;-95
2022/10/21 05:34:44;;;;;;;9.15;3.92;;;;;;;;;;6289503;22;20006;-95
2022/10/21 05:37:10;;;;;;;8.35;3.25;;;;;;;;;;6313564;22;19999;-93
2022/10/21 05:39:36;;;;;;;12.02;3.20;;;;;;;;;;6315456;22;20336;-94
2022/10/21 05:42:02;;;;;;;4.55;2.55;;;;;;;;;;6318601;22;20007;-94
2022/10/21 05:44:28;;;;;;;8.15;3.58;;;;;;;;;;6340229;22;20016;-96
2022/10/21 05:46:54;;;;;;;6.25;2.80;;;;;;;;;;6331333;22;20009;-95
2022/10/21 05:49:20;;;;;;;10.90;3.20;;;;;;;;;;6314501;22;20097;-95
2022/10/21 05:51:47;;;;;;;7.22;3.53;;;;;;;;;;6314457;22;20439;-96
2022/10/21 05:54:13;;;;;;;7.22;3.70;;;;;;;;;;6315833;22;20428;-96
2022/10/21 05:56:41;;;;;;;7.38;3.13;;;;;;;;;;6314251;22;20003;-90
2022/10/21 05:59:07;;;;;;;7.35;3.15;;;;;;;;;;6313629;22;20523;-86
2022/10/21 06:01:33;;;;;;;9.18;3.63;;;;;;;;;;6313538;22;20003;-92
2022/10/21 06:03:59;;;;;;;6.70;3.35;;;;;;;;;;6313186;22;20331;-91
2022/10/21 06:06:25;;;;;;;8.20;3.60;;;;;;;;;;6313126;22;19999;-93
2022/10/21 06:08:51;;;;;;;5.57;2.88;;;;;;;;;;6312929;22;20321;-91
2022/10/21 06:11:21;;;;;;;6.32;3.38;;;;;;;;;;6313645;22;20105;-94
2022/10/21 06:13:47;;;;;;;8.85;3.53;;;;;;;;;;6314169;22;20378;-95
2022/10/21 06:16:14;;;;;;;8.70;3.55;;;;;;;;;;6336141;22;20034;-96
2022/10/21 06:18:52;;;;;;;7.30;3.28;;;;;;;;;;6313423;22;20006;-96
2022/10/21 06:21:18;;;;;;;6.53;3.00;;;;;;;;;;6326556;22;19986;-87
2022/10/21 06:24:15;;;;;;;9.52;3.78;;;;;;;;;;6326444;22;20007;-96
2022/10/21 06:27:07;;;;;;;6.32;2.80;;;;;;;;;;6346609;22;20003;-96
2022/10/21 06:29:33;;;;;;;6.50;3.08;;;;;;;;;;6322594;22;20011;-87
2022/10/21 06:32:02;;;;;;;8.13;3.55;;;;;;;;;;6317494;22;20003;-95
2022/10/21 06:34:31;;;;;;;6.32;2.90;;;;;;;;;;6313434;22;20003;-95
2022/10/21 06:36:57;;;;;;;6.65;3.30;;;;;;;;;;6316128;22;20006;-95
2022/10/21 06:39:26;;;;;;;5.80;2.83;;;;;;;;;;6314420;22;20003;-96
2022/10/21 06:41:55;;;;;;;6.97;2.92;;;;;;;;;;6314378;22;20003;-96
2022/10/21 06:44:21;;;;;;;6.25;3.10;;;;;;;;;;6313337;22;20009;-89
2022/10/21 06:46:50;;;;;;;7.43;3.40;;;;;;;;;;6314272;22;20024;-93
2022/10/21 06:49:26;;;;;;;7.07;3.40;;;;;;;;;;6312823;22;20046;-94
2022/10/21 06:51:52;;;;;;;7.53;3.40;;;;;;;;;;6314645;22;20442;-87
2022/10/21 06:54:18;;;;;;;5.50;2.72;;;;;;;;;;6313734;22;20003;-91
2022/10/21 06:57:11;;;;;;;9.85;3.03;;;;;;;;;;6316260;22;20003;-93
2022/10/21 06:59:40;;;;;;;7.03;3.10;;;;;;;;;;6347783;22;19999;-94
2022/10/21 07:02:09;;;;;;;5.88;3.13;;;;;;;;;;6316956;22;20009;-95
2022/10/21 07:04:35;;;;;;;10.60;3.85;;;;;;;;;;6313096;22;20026;-88
2022/10/21 07:07:03;;;;;;;9.25;3.78;;;;;;;;;;6313356;22;20124;-94
2022/10/21 07:09:30;;;;;;;6.40;3.17;;;;;;;;;;6313653;22;20015;-94
2022/10/21 07:11:56;;;;;;;7.60;3.20;;;;;;;;;;6314512;22;20010;-95
2022/10/21 07:14:28;;;;;;;7.78;3.75;;;;;;;;;;6315039;22;20003;-93
2022/10/21 07:16:54;;;;;;;13.30;3.47;;;;;;;;;;6319959;22;20056;-89
2022/10/21 07:19:20;;;;;;;7.63;3.90;;;;;;;;;;6316344;22;20003;-86
2022/10/21 07:21:50;;;;;;;6.95;3.63;;;;;;;;;;6317354;22;20309;-93
2022/10/21 07:24:17;;;;;;;9.77;3.50;;;;;;;;;;6317421;22;20415;-93
2022/10/21 07:26:43;;;;;;;8.43;3.47;;;;;;;;;;6317313;22;20457;-95
2022/10/21 07:29:12;;;;;;;6.55;3.30;;;;;;;;;;6334783;22;20019;-88
2022/10/21 07:31:38;;;;;;;7.22;3.83;;;;;;;;;;6329231;22;20434;-86
2022/10/21 07:34:24;;;;;;;6.38;3.20;;;;;;;;;;6316433;22;20033;-92
2022/10/21 07:36:53;;;;;;;8.95;3.40;;;;;;;;;;6315152;22;20026;-94
2022/10/21 07:39:24;;;;;;;6.45;3.15;;;;;;;;;;6314477;22;20086;-86
2022/10/21 07:41:56;;;;;;;8.52;3.10;;;;;;;;;;6308634;22;20024;-85
2022/10/21 07:44:23;;;;;;;7.72;3.00;;;;;;;;;;6314332;22;20007;-87
2022/10/21 07:46:52;;;;;;;10.90;3.42;;;;;;;;;;6315995;22;20026;-95
2022/10/21 07:49:28;;;;;;;4.80;2.67;;;;;;;;;;6309582;22;20081;-96
2022/10/21 07:51:57;;;;;;;6.13;3.10;;;;;;;;;;6314370;22;20060;-90
2022/10/21 07:54:23;;;;;;;6.68;3.33;;;;;;;;;;6314302;22;20003;-87
2022/10/21 07:56:50;;;;;;;9.32;3.17;;;;;;;;;;6314141;22;20060;-86
2022/10/21 07:59:17;;;;;;;5.68;2.85;;;;;;;;;;6314660;22;20006;-91
2022/10/21 08:01:46;;;;;;;6.40;3.33;;;;;;;;;;6341952;22;20007;-86
2022/10/21 08:04:17;;;;;;;7.45;3.38;;;;;;;;;;6315639;22;20003;-87
2022/10/21 08:06:44;;;;;;;6.38;3.40;;;;;;;;;;6314179;22;20014;-87
2022/10/21 08:09:11;;;;;;;10.68;2.85;;;;;;;;;;6314729;22;20057;-92
2022/10/21 08:11:37;;;;;;;14.45;4.20;;;;;;;;;;6314942;22;20003;-88
2022/10/21 08:14:05;;;;;;;10.70;2.75;;;;;;;;;;6314913;22;20032;-87
2022/10/21 08:16:31;;;;;;;7.68;3.65;;;;;;;;;;6309415;22;20375;-92
2022/10/21 08:18:59;;;;;;;6.05;2.75;;;;;;;;;;6308930;22;20421;-88
2022/10/21 08:21:25;;;;;;;15.00;3.05;;;;;;;;;;6309788;22;20003;-88
2022/10/21 08:23:51;;;;;;;6.72;3.03;;;;;;;;;;6308581;22;20009;-92
2022/10/21 08:26:17;;;;;;;8.93;2.92;;;;;;;;;;6309023;22;20088;-88
2022/10/21 08:28:44;;;;;;;6.63;3.10;;;;;;;;;;6308677;22;20065;-90
2022/10/21 08:31:20;;;;;;;12.55;3.60;;;;;;;;;;6309656;22;20003;-92
2022/10/21 08:33:46;;;;;;;8.13;3.13;;;;;;;;;;6309506;22;20078;-89
2022/10/21 08:36:14;;;;;;;5.47;3.15;;;;;;;;;;6308894;22;20090;-93
2022/10/21 08:38:42;;;;;;;7.95;2.80;;;;;;;;;;6309122;22;19999;-91
2022/10/21 08:41:18;;;;;;;5.30;2.50;;;;;;;;;;6310299;22;20069;-92
2022/10/21 08:43:45;;;;;;;6.50;3.42;;;;;;;;;;6310526;22;20530;-87
2022/10/21 08:46:14;;;;;;;4.80;2.42;;;;;;;;;;6309055;22;20007;-90
2022/10/21 08:48:46;;;;;;;14.00;2.85;;;;;;;;;;6308970;22;20096;-87
2022/10/21 08:51:19;;;;;;;6.47;3.05;;;;;;;;;;6308914;22;20007;-90
2022/10/21 08:53:47;;;;;;;8.52;3.10;;;;;;;;;;6309790;22;20497;-86
2022/10/21 08:56:14;;;;;;;8.73;3.03;;;;;;;;;;6310740;22;20423;-94
2022/10/21 08:58:40;;;;;;;10.07;3.58;;;;;;;;;;6309025;22;20004;-92
2022/10/21 09:01:09;;;;;;;8.40;2.92;;;;;;;;;;6309015;22;20113;-89
2022/10/21 09:03:53;;;;;;;8.18;2.63;;;;;;;;;;6309901;22;19999;-93
2022/10/21 09:06:19;;;;;;;;;;;;;;;;;;6309515;22;20000;-88
2022/10/21 09:08:46;;;;;;;5.28;2.58;;;;;;;;;;6310166;22;20339;-89
2022/10/21 09:11:21;;;;;;;11.38;3.20;;;;;;;;;;6309110;22;19999;-90
2022/10/21 09:13:57;;;;;;;6.47;2.83;;;;;;;;;;6311284;22;20007;-87
2022/10/21 09:16:40;;;;;;;9.05;2.83;;;;;;;;;;6329589;22;20015;-91
2022/10/21 09:19:33;;;;;;;7.43;3.00;;;;;;;;;;6309727;22;20018;-88
2022/10/21 09:22:14;;;;;;;7.68;3.30;;;;;;;;;;6277885;22;20068;-92
2022/10/21 09:25:01;;;;;;;7.75;2.90;;;;;;;;;;6305289;22;20011;-89
2022/10/21 09:27:27;;;;;;;5.13;2.78;;;;;;;;;;6308112;22;20004;-88
2022/10/21 09:29:58;;;;;;;7.45;3.17;;;;;;;;;;6308596;22;20003;-89
2022/10/21 09:32:27;;;;;;;4.93;2.90;;;;;;;;;;6308398;22;20105;-92
2022/10/21 09:35:16;;;;;;;6.30;3.25;;;;;;;;;;6308599;22;20007;-88
2022/10/21 09:38:02;;;;;;;5.45;2.67;;;;;;;;;;6308325;22;20003;-94
2022/10/21 09:40:32;;;;;;;6.93;3.17;;;;;;;;;;6308888;22;20003;-88
2022/10/21 09:43:00;;;;;;;7.22;3.10;;;;;;;;;;6310928;22;20067;-90
2022/10/21 09:45:32;;;;;;;5.18;2.83;;;;;;;;;;6314126;22;20039;-88
2022/10/21 09:48:07;;;;;;;8.13;2.85;;;;;;;;;;6307824;22;20011;-88
2022/10/21 09:50:37;;;;;;;9.95;2.97;;;;;;;;;;6308626;22;20006;-92
2022/10/21 09:53:08;;;;;;;9.10;3.15;;;;;;;;;;6308394;22;20010;-92
2022/10/21 09:55:34;;;;;;;5.32;2.72;;;;;;;;;;6308000;22;20468;-89
2022/10/21 09:58:05;;;;;;;5.35;2.75;;;;;;;;;;6307782;22;20026;-93
2022/10/21 10:00:42;;;;;;;7.45;2.70;;;;;;;;;;6308363;22;20137;-89
2022/10/21 10:03:08;;;;;;;8.15;2.95;;;;;;;;;;6308019;22;20048;-88
2022/10/21 10:05:37;;;;;;;6.75;2.85;;;;;;;;;;6308882;22;20082;-93
2022/10/21 10:08:25;;;;;;;9.40;3.05;;;;;;;;;;6308759;22;20429;-93
2022/10/21 10:11:00;;;;;;;8.45;2.88;;;;;;;;;;6307277;22;20003;-89
2022/10/21 10:13:27;;;;;;;6.00;2.58;;;;;;;;;;6310202;22;20007;-89
2022/10/21 10:15:54;;;;;;;7.55;3.08;;;;;;;;;;6308103;22;20094;-89
2022/10/21 10:18:21;;;;;;;5.45;2.80;;;;;;;;;;6307670;22;20476;-91
2022/10/21 10:21:03;;;;;;;5.45;3.20;;;;;;;;;;6310934;22;20000;-93
2022/10/21 10:23:29;;;;;;;4.97;2.88;;;;;;;;;;6308187;22;19999;-93
2022/10/21 10:25:58;;;;;;;8.55;2.80;;;;;;;;;;6308159;22;20090;-95
2022/10/21 10:28:25;;;;;;;6.40;3.08;;;;;;;;;;6308784;22;20037;-91
2022/10/21 10:30:55;;;;;;;7.25;2.95;;;;;;;;;;6308647;22;20000;-94
2022/10/21 10:33:26;;;;;;;13.18;3.22;;;;;;;;;;6309393;22;20009;-90
2022/10/21 10:35:57;;;;;;;4.75;2.85;;;;;;;;;;6308194;22;19999;-93
2022/10/21 10:38:32;;;;;;;5.38;2.38;;;;;;;;;;6307870;22;20013;-91
2022/10/21 10:41:06;;;;;;;6.22;2.85;;;;;;;;;;6307438;22;20007;-93
2022/10/21 10:43:54;;;;;;;6.38;3.20;;;;;;;;;;6308264;22;20087;-89
2022/10/21 10:46:31;;;;;;;5.97;3.00;;;;;;;;;;6302038;22;20113;-94
2022/10/21 10:49:20;;;;;;;5.65;2.70;;;;;;;;;;6307513;22;20452;-90
2022/10/21 10:52:03;;;;;;;6.55;2.60;;;;;;;;;;6308078;22;20029;-92
2022/10/21 10:54:35;;;;;;;7.00;2.63;;;;;;;;;;6308238;22;20014;-93
2022/10/21 10:57:07;;;;;;;6.32;2.80;;;;;;;;;;6308480;22;20010;-94
2022/10/21 10:59:34;;;;;;;6.03;3.10;;;;;;;;;;6308906;22;20011;-88
2022/10/21 11:02:02;;;;;;;6.82;3.28;;;;;;;;;;6317776;22;20026;-92
2022/10/21 11:04:37;;;;;;;5.05;2.60;;;;;;;;;;6322163;22;20087;-94
2022/10/21 11:07:24;;;;;;;6.55;2.97;;;;;;;;;;6307581;22;20003;-90
2022/10/21 11:09:56;;;;;;;9.57;3.10;;;;;;;;;;6307659;22;20012;-92
2022/10/21 11:12:25;;;;;;;10.13;3.67;;;;;;;;;;6307643;22;19999;-95
2022/10/21 11:14:53;;;;;;;20.83;3.90;;;;;;;;;;6307243;22;20026;-90
2022/10/21 11:17:20;;;;;;;8.30;3.30;;;;;;;;;;6307544;22;20133;-92
2022/10/21 11:19:46;;;;;;;13.50;3.05;;;;;;;;;;6308619;22;20176;-88
2022/10/21 11:22:31;;;;;;;7.53;3.78;;;;;;;;;;6307721;22;20026;-94
2022/10/21 11:25:16;;;;;;;6.45;3.40;;;;;;;;;;6308098;22;20359;-93
2022/10/21 11:28:26;;;;;;;8.65;3.28;;;;;;;;;;6308237;22;20000;-92
2022/10/21 11:30:52;;;;;;;5.20;3.20;;;;;;;;;;6131087;23;20045;-93
2022/10/21 11:33:34;;;;;;;9.13;3.30;;;;;;;;;;6273636;22;20030;-94
2022/10/21 11:36:23;;;;;;;7.63;3.17;;;;;;;;;;6307368;22;20031;-93
2022/10/21 11:39:08;;;;;;;5.45;2.75;;;;;;;;;;6265769;22;20006;-88
2022/10/21 11:41:34;;;;;;;5.15;2.70;;;;;;;;;;6301733;22;20035;-87
2022/10/21 11:44:06;;;;;;;5.90;2.80;;;;;;;;;;6308321;22;20431;-95
2022/10/21 11:46:35;;;;;;;9.88;3.00;;;;;;;;;;6307661;22;20031;-90
2022/10/21 11:49:20;;;;;;;7.00;2.75;;;;;;;;;;6282551;22;20015;-92
2022/10/21 11:51:49;;;;;;;11.57;3.75;;;;;;;;;;6310848;22;20010;-93
2022/10/21 11:54:21;;;;;;;6.47;3.30;;;;;;;;;;6298890;22;20003;-95
2022/10/21 11:56:54;;;;;;;7.88;3.35;;;;;;;;;;6308665;22;20011;-91
2022/10/21 11:59:35;;;;;;;6.85;3.00;;;;;;;;;;6309700;22;20009;-90
2022/10/21 12:02:14;;;;;;;6.38;3.42;;;;;;;;;;6311120;22;19999;-93
2022/10/21 12:04:48;;;;;;;7.45;2.80;;;;;;;;;;6314530;22;20003;-90
2022/10/21 12:07:14;;;;;;;;;;;;;;;;;;6314673;22;20009;-88
2022/10/21 12:09:55;;;;;;;8.88;2.70;;;;;;;;;;6314704;22;19953;-89
2022/10/21 12:12:38;;;;;;;12.38;3.22;;;;;;;;;;6314073;22;20010;-90
2022/10/21 12:15:24;;;;;;;6.82;2.70;;;;;;;;;;6315682;22;20037;-94
2022/10/21 12:17:54;;;;;;;8.52;3.25;;;;;;;;;;6316092;22;20003;-90
2022/10/21 12:20:28;;;;;;;9.63;3.35;;;;;;;;;;6340725;22;20006;-87
2022/10/21 12:23:07;;;;;;;9.35;3.50;;;;;;;;;;6314576;22;20003;-94
2022/10/21 12:25:33;;;;;;;6.82;3.15;;;;;;;;;;6314790;22;20022;-90
2022/10/21 12:28:06;;;;;;;13.30;3.83;;;;;;;;;;6315065;22;20014;-94
2022/10/21 12:30:49;;;;;;;6.15;3.25;;;;;;;;;;6316454;22;20006;-89
2022/10/21 12:33:25;;;;;;;8.48;3.15;;;;;;;;;;6319789;22;20026;-94
2022/10/21 12:35:53;;;;;;;6.90;3.17;;;;;;;;;;6316347;22;20033;-89
2022/10/21 12:38:38;;;;;;;7.57;3.35;;;;;;;;;;6314569;22;20007;-88
2022/10/21 12:41:24;;;;;;;8.93;3.15;;;;;;;;;;6314748;22;20003;-93
2022/10/21 12:43:57;;;;;;;8.02;3.17;;;;;;;;;;6314201;22;19999;-92
2022/10/21 12:46:24;;;;;;;7.55;3.88;;;;;;;;;;6320006;22;20006;-89
2022/10/21 12:48:51;;;;;;;9.45;3.38;;;;;;;;;;6334487;22;20509;-93
2022/10/21 12:51:19;;;;;;;11.38;3.75;;;;;;;;;;6319602;22;20013;-95
2022/10/21 12:53:50;;;;;;;19.23;3.63;;;;;;;;;;6314363;22;20025;-87
2022/10/21 12:56:37;;;;;;;6.88;3.85;;;;;;;;;;6314771;22;20006;-88
2022/10/21 12:59:05;;;;;;;11.27;3.63;;;;;;;;;;6314365;22;20356;-88
2022/10/21 13:01:45;;;;;;;7.13;3.67;;;;;;;;;;6314220;22;20420;-88
2022/10/21 13:04:30;;;;;;;8.63;3.90;;;;;;;;;;6308194;22;20026;-92
2022/10/21 13:06:57;;;;;;;11.43;4.35;;;;;;;;;;6308610;22;20454;-93
2022/10/21 13:09:40;;;;;;;11.93;4.10;;;;;;;;;;6307850;22;20011;-90
2022/10/21 13:12:09;;;;;;;9.20;4.47;;;;;;;;;;6308518;22;20328;-87
2022/10/21 13:14:38;;;;;;;9.18;3.95;;;;;;;;;;6308170;22;20007;-90
2022/10/21 13:17:36;;;;;;;7.90;3.85;;;;;;;;;;6308917;22;19995;-88
2022/10/21 13:20:14;;;;;;;7.40;3.72;;;;;;;;;;6272294;22;20490;-89
2022/10/21 13:22:41;;;;;;;11.90;4.20;;;;;;;;;;6309915;22;20063;-87
2022/10/21 13:25:26;;;;;;;11.82;3.53;;;;;;;;;;6310811;22;20034;-88
2022/10/21 13:27:55;;;;;;;12.85;3.50;;;;;;;;;;6307740;22;20041;-93
2022/10/21 13:30:29;;;;;;;9.02;3.65;;;;;;;;;;6307808;22;20007;-89
2022/10/21 13:33:04;;;;;;;7.75;3.90;;;;;;;;;;6308604;22;20003;-91
2022/10/21 13:35:42;;;;;;;;;;;;;;;;;;;;;
2022/10/21 13:38:23;;;;;;;13.70;3.00;;;;;;;;;;6284939;22;20074;-87
2022/10/21 13:41:09;;;;;;;6.28;2.95;;;;;;;;;;6307899;22;20007;-89
2022/10/21 13:43:38;;;;;;;7.53;3.60;;;;;;;;;;6283607;22;20074;-91
2022/10/21 13:46:16;;;;;;;9.00;3.67;;;;;;;;;;6310605;22;20383;-88
2022/10/21 13:48:46;;;;;;;9.30;4.07;;;;;;;;;;6308525;22;20425;-93
2022/10/21 13:51:26;;;;;;;7.78;3.75;;;;;;;;;;6308899;22;20056;-87
2022/10/21 13:54:00;;;;;;;9.85;3.50;;;;;;;;;;6308307;22;20007;-92
2022/10/21 13:56:30;;;;;;;12.35;3.83;;;;;;;;;;6309952;22;20019;-92
2022/10/21 13:58:59;;;;;;;14.18;5.72;;;;;;;;;;6307940;22;20014;-91
2022/10/21 14:01:26;;;;;;;14.43;4.68;;;;;;;;;;6308747;22;20008;-91
2022/10/21 14:04:11;;;;;;;7.95;3.92;;;;;;;;;;6307852;22;20069;-92
2022/10/21 14:06:38;;;;;;;6.53;3.88;;;;;;;;;;6309366;22;20007;-88
2022/10/21 14:09:08;;;;;;;8.57;4.78;;;;;;;;;;6308236;22;20076;-89
2022/10/21 14:11:40;;;;;;;9.35;3.95;;;;;;;;;;6308038;22;20053;-90
2022/10/21 14:14:08;;;;;;;9.02;4.07;;;;;;;;;;6308829;22;20007;-89
2022/10/21 14:16:37;;;;;;;9.77;4.57;;;;;;;;;;6307724;22;20023;-89
2022/10/21 14:19:10;;;;;;;10.00;4.50;;;;;;;;;;6308141;22;20007;-90
2022/10/21 14:21:42;;;;;;;9.07;4.32;;;;;;;;;;6308240;22;20046;-91
2022/10/21 14:24:23;;;;;;;8.60;4.00;;;;;;;;;;6307839;22;20391;-89
2022/10/21 14:26:49;;;;;;;30.70;7.50;;;;;;;;;;6308178;22;20081;-94
2022/10/21 14:29:15;;;;;;;27.13;7.00;;;;;;;;;;6308756;22;20045;-88
2022/10/21 14:31:41;;;;;;;6.32;3.70;;;;;;;;;;6307736;22;19999;-90
2022/10/21 14:34:19;;;;;;;8.82;4.00;;;;;;;;;;6323808;22;20027;-88
2022/10/21 14:37:02;;;;;;;9.77;3.40;;;;;;;;;;6313294;22;19999;-94
2022/10/21 14:39:29;;;;;;;7.13;3.67;;;;;;;;;;6308179;22;20007;-87
2022/10/21 14:41:55;;;;;;;6.97;3.80;;;;;;;;;;6307616;22;20237;-91
2022/10/21 14:44:25;;;;;;;7.32;3.53;;;;;;;;;;6308255;22;20082;-87
2022/10/21 14:46:52;;;;;;;7.90;3.97;;;;;;;;;;6307961;22;20129;-86
2022/10/21 14:49:18;;;;;;;9.80;3.95;;;;;;;;;;6307397;22;20018;-86
2022/10/21 14:51:45;;;;;;;8.15;3.60;;;;;;;;;;6309324;22;20030;-89
2022/10/21 14:54:25;;;;;;;11.10;3.97;;;;;;;;;;6307721;22;20007;-94
2022/10/21 14:56:51;;;;;;;8.82;3.83;;;;;;;;;;6308106;22;19999;-87
2022/10/21 14:59:36;;;;;;;8.80;4.00;;;;;;;;;;6308315;22;20008;-88
2022/10/21 15:02:02;;;;;;;9.68;5.03;;;;;;;;;;6308122;22;19999;-92
2022/10/21 15:04:48;;;;;;;8.43;4.75;;;;;;;;;;6309356;22;20025;-88
2022/10/21 15:07:32;;;;;;;8.23;4.43;;;;;;;;;;6307442;22;20010;-92
2022/10/21 15:09:59;;;;;;;13.82;4.63;;;;;;;;;;6309642;22;20035;-89
2022/10/21 15:12:25;;;;;;;12.23;4.22;;;;;;;;;;6309272;22;20001;-95
2022/10/21 15:14:51;;;;;;;7.72;3.60;;;;;;;;;;6309176;22;20007;-89
2022/10/21 15:17:17;;;;;;;9.85;3.90;;;;;;;;;;6308996;22;20034;-93
2022/10/21 15:19:45;;;;;;;7.70;3.78;;;;;;;;;;6308054;22;20012;-88
2022/10/21 15:22:20;;;;;;;14.32;4.25;;;;;;;;;;6307406;22;20003;-88
2022/10/21 15:24:46;;;;;;;8.25;3.90;;;;;;;;;;6310018;22;20004;-88
2022/10/21 15:27:17;;;;;;;8.45;4.40;;;;;;;;;;6309743;22;19999;-91
2022/10/21 15:29:45;;;;;;;8.82;4.10;;;;;;;;;;6307461;22;20759;-88
2022/10/21 15:32:14;;;;;;;7.95;4.45;;;;;;;;;;6282531;22;20337;-93
2022/10/21 15:34:40;;;;;;;11.15;4.13;;;;;;;;;;6310380;22;20019;-94
2022/10/21 15:37:06;;;;;;;8.93;4.03;;;;;;;;;;6310891;22;20053;-93
2022/10/21 15:39:32;;;;;;;9.20;4.53;;;;;;;;;;6309682;22;20011;-88